Wauneta, NE

4:44 AM MDT on May 06, 2015 (GMT -0600)
Imperial Municipal | | Change Station
CLOSE
Current Station
Airport
Location: Imperial,
Elevation: 3274 ft
Nearby Weather Stations

Elev 3274 ft 40.51 °N, 101.62 °W | Updated 51 minutes ago

Overcast
Overcast
53 °F
Feels Like 53 °F
N
16
Wind Variable Wind from SSE

Today
High -- | Low -- °F
--% Chance of Precip.
Yesterday
High -- | Low -- °F
Precip. -- in
5:38 AM 7:45 PM
Waning Gibbous, 94% visible
Pressure 29.68 in
Visibility 10.0 miles
Clouds Overcast 1400 ft
Dew Point 50 °F
Humidity 89%
Rainfall 0.00 in
Snow Depth Not available.
UV 0 out of 12
Pollen 4.90 out of 12
Air Quality Not available.
Flu Activity Local Activity
METAR KIML 060953Z AUTO 16014KT 10SM OVC014 12/10 A2971 RMK AO2 SLP049 T01170100

More Conditions Fewer Conditions

Pressure 29.68 in
Visibility 10.0 miles
Clouds Overcast 1400 ft
Dew Point 50 °F
Humidity 89%
Rainfall 0.00 in
Snow Depth Not available.
UV 0 out of 12
Pollen 4.90 out of 12
Air Quality Not available.
Flu Activity Local Activity
METAR KIML 060953Z AUTO 16014KT 10SM OVC014 12/10 A2971 RMK AO2 SLP049 T01170100

More Conditions Fewer Conditions

Nowcast | as of 5:18 am CDT on May 6, 2015

Isolated showers will increase in coverage and intensity this morning across western and north central nebraksa. Hourly raifall rates of 5 hundredths or less can be expected.

×

10-Day Weather Forecast

Almanac

Astronomy

May. 06, 2015 Rise Set
Actual Time
Civil Twilight
Nautical Twilight
Astronomical Twilight
Moon
Length of Visible Light
Length of Day
Tomorrow will be .
, % of the Moon is Illuminated

Today's Extremes

State Highs State Lows

Community

WunderPhotos

Upload Photos

1,818,859 photos uploaded!

WunderBlogs® & News

Nearby

Air Quality

  Air Quality AQ Index Pollutant
Not available.

Snow Depth

Station Depth Elevation

Earthquake Activity

City Distance Mag. Time & Date
Minimum magnitude displayed is 2.5.

Coastal Water Temperatures

Place Temperature

Stations

Nearby Weather Stations

Station Location Temp. Windchill Dew Point Humidity Wind Precip. Elev Updated Type